Airfield :
LOGIN :

Register | Disclaimer

   EN    FR    IT 

 










Legend :    VFR   Marginal VFR   IFR   Intensive IFR   Very Intensive IFR
Visi :
Ceiling :
>= 8 km
>= 3000ft
5 to 8 km
1000 to 3000 ft
1500m to 5 km
500 to 1000 ft
800 to 1500m
200 to 500 ft
< 800m
< 200 ft
Symbols :   Thunderstorms  Fog  Heavy snow  Heavy precipitations  Wind > 20 kt
SIGMETs :     Misc.  Thunderstorms  Icing  Turbulence  Mountain Waves  Volcanic Ashes







- Airport Elevation : 1247 ft
- IATA code : PRG


LKPR - Praha Ruzyne

CURRENT METAR :
  • 101300Z 26018KT 9999 SCT033 03/M01 Q1013 NOSIG

EXPIRED METARs :
  • 101230Z 28020KT 9999 FEW030TCU SCT033 04/M02 Q1012 NOSIG
  • 101219Z 28019KT 9999 -SG FEW030TCU SCT033 04/M02 Q1013 RMK REG QNH 1008
  • 101212Z 28017G27KT 9999 SCT033 04/M02 Q1012 RMK REG QNH 1008
  • 101200Z 28018KT 9999 SCT033 04/M02 Q1012 NOSIG
  • 101130Z 28019G31KT 9999 BKN030 BKN043 04/M01 Q1012 NOSIG
  • 101104Z 29021G31KT 9999 BKN033 BKN046 04/M02 Q1012 RMK REG QNH 1006
  • 101030Z 29019KT 9999 BKN030 04/M02 Q1012 NOSIG

TAF TAF LKPR
Valid from the 10 at 12:00 until the 11 at 18:00 UTC


101100Z 1012/1118 27016KT 9999 BKN030
TEMPO 1012/1116 29020G32KT
TEMPO 1012/1115 5000 SHSNRA BKN011
PROB40
TEMPO 1016/1115 2000 SN BKN007
TEMPO 1115/1118 2000 SN BKN009
PROB30
TEMPO 1115/1118 0700 +SN BKN004
No reported NOTAMs for that airfield.



MET'MAP, your aeronautical weather chart ! - Copyright ORBIFLY December 2007 - Disclaimer

ORBIFLY MET'MAP TEAM :

Programming & Development : Alexandra Zaïnal
Concept & Development : Baudouin d'Aumeries
Co-Development & Prog : Marc-Olivier Méhu
Technical & hardware support : Manuel Goepfert

Contact : metmap@orbifly.com




SOURCES & CREDITS :

   NOAA